createdAt,value
2017-12-31T08:24:02.549Z,99.99
2017-12-31T09:25:23.735Z,91.83
2017-12-31T09:26:11.716Z,91.93
2017-12-31T09:29:02.839Z,91.40
2017-12-31T09:30:02.386Z,91.55
2017-12-31T09:31:02.858Z,91.40
2017-12-31T09:32:02.321Z,90.73
2017-12-31T09:33:03.082Z,89.87
2017-12-31T09:34:02.615Z,89.20
2017-12-31T09:35:01.735Z,89.59
2017-12-31T09:36:02.380Z,89.78
2017-12-31T09:37:02.652Z,89.63
2017-12-31T09:38:04.145Z,89.15
2017-12-31T09:43:15.310Z,87.82
2017-12-31T09:44:08.610Z,87.72
2017-12-31T09:45:08.614Z,87.72
2017-12-31T09:46:07.816Z,86.57
2017-12-31T09:47:08.963Z,86.47
2017-12-31T09:48:17.390Z,86.67
2017-12-31T11:05:09.714Z,92.60
2017-12-31T11:56:47.986Z,91.64
2017-12-31T12:32:17.308Z,92.07
2017-12-31T12:34:40.541Z,91.41
2017-12-31T12:35:40.088Z,91.02
2017-12-31T12:36:39.574Z,91.78
2017-12-31T15:50:33.448Z,96.17
2017-12-31T15:54:39.517Z,96.51
2017-12-31T15:55:40.426Z,96.80
2017-12-31T15:56:40.890Z,96.89
2017-12-31T15:57:39.476Z,97.27
2017-12-31T15:58:39.197Z,97.46
2017-12-31T15:59:39.832Z,97.56
2017-12-31T16:00:39.153Z,97.75
2017-12-31T16:01:39.272Z,97.84
2017-12-31T16:02:39.001Z,98.13
2017-12-31T16:03:38.795Z,98.32
2017-12-31T16:04:39.561Z,97.84
2017-12-31T16:05:38.732Z,97.94
2017-12-31T16:06:38.798Z,97.46
2017-12-31T16:07:38.710Z,97.27
2017-12-31T16:08:38.681Z,97.27
2017-12-31T16:09:38.636Z,97.36
2017-12-31T16:10:38.699Z,97.27
2017-12-31T16:11:38.597Z,97.27
2017-12-31T16:12:38.657Z,97.27
2017-12-31T16:13:38.631Z,97.46
2017-12-31T16:14:38.588Z,97.65
2017-12-31T16:15:38.561Z,97.65
2017-12-31T16:16:39.131Z,97.46
2017-12-31T16:17:38.555Z,96.80
2017-12-31T16:18:38.527Z,97.08
2017-12-31T16:19:38.502Z,96.60
2017-12-31T16:20:38.489Z,96.12
2017-12-31T16:21:38.477Z,96.70
2017-12-31T16:22:38.562Z,96.12
2017-12-31T16:23:38.461Z,96.08
2017-12-31T16:24:38.374Z,96.46
2017-12-31T16:25:38.350Z,96.32
2017-12-31T16:26:38.639Z,95.94
2017-12-31T16:27:38.514Z,96.03
2017-12-31T16:48:12.233Z,94.56
2017-12-31T16:49:12.518Z,94.27
2017-12-31T16:51:08.730Z,94.65
2017-12-31T16:52:08.204Z,94.84
2017-12-31T16:53:08.511Z,94.84
2017-12-31T16:54:09.169Z,95.03
2017-12-31T16:55:09.180Z,94.84
2017-12-31T16:56:16.682Z,94.65
2017-12-31T16:58:05.090Z,94.46
2017-12-31T16:59:00.943Z,95.03
2017-12-31T17:00:01.474Z,94.27
2017-12-31T17:01:01.948Z,94.27
2017-12-31T17:02:03.126Z,94.65
2017-12-31T17:03:00.645Z,93.88
2017-12-31T17:04:00.571Z,94.46
2017-12-31T17:05:01.814Z,94.27
2017-12-31T17:06:01.938Z,94.08
2017-12-31T17:07:01.168Z,93.79
2017-12-31T17:08:02.055Z,93.51
2017-12-31T17:09:01.298Z,93.51
2017-12-31T17:10:00.355Z,93.51
2017-12-31T17:11:00.319Z,93.41
2017-12-31T17:12:00.383Z,93.51
2017-12-31T17:13:00.214Z,93.32
2017-12-31T17:14:00.227Z,93.41
2017-12-31T17:15:00.189Z,93.32
2017-12-31T17:16:00.165Z,93.70
2017-12-31T17:17:00.162Z,93.88
2017-12-31T17:18:00.235Z,92.65
2017-12-31T17:19:01.068Z,92.84
2017-12-31T17:20:00.113Z,92.93
2017-12-31T17:21:00.312Z,93.22
2017-12-31T17:22:00.073Z,92.93
2017-12-31T17:23:00.274Z,92.17
2017-12-31T17:24:00.127Z,92.46
2017-12-31T17:25:00.029Z,92.27
2017-12-31T17:25:59.964Z,92.46
2017-12-31T17:26:59.985Z,92.27
2017-12-31T17:28:00.057Z,91.69
2017-12-31T17:53:38.031Z,92.84
2017-12-31T17:54:31.230Z,92.84
2017-12-31T17:55:30.935Z,93.12
2017-12-31T17:56:31.457Z,92.93
2017-12-31T17:57:30.558Z,92.74
2017-12-31T17:58:49.181Z,92.74
2017-12-31T18:03:37.557Z,91.88
2017-12-31T18:04:37.942Z,91.98
2017-12-31T18:12:27.464Z,91.60
2017-12-31T18:35:22.874Z,89.22
2017-12-31T20:10:44.745Z,89.51
2017-12-31T20:18:32.077Z,86.98
2017-12-31T20:25:36.102Z,88.84
2017-12-31T20:32:19.982Z,88.65
2017-12-31T20:33:14.342Z,88.27
2017-12-31T20:36:16.336Z,88.18
2017-12-31T22:11:47.439Z,82.98
2017-12-31T22:12:47.953Z,83.21
